Celle, Germany

3:28 AM CET on December 05, 2016 (GMT +0100)
Celle Army | | Change Station

Elev 171 ft 52.60 °N, 10.03 °E | Updated 8 minutes ago

Fog
Fog Mist
23 °F
Feels Like 23 °F
N
2
Wind Variable Wind from NE

Today
High -- | Low -- °F
--% Chance of Precip.
Yesterday
High -- | Low -- °F
Precip. -- in
Pressure 30.39 in
Visibility 2.2 miles
Clouds Few 100 ft
Dew Point 21 °F
Humidity 93%
Rainfall 0.00 in
Snow Depth Not available.
8:14 AM 4:06 PM
Waxing Crescent, 27% visible
METAR ETHC 050220Z 05002KT 3500 MIFG BR FEW001 M05/M06 Q1029 YLO
Pressure 30.39 in
Visibility 2.2 miles
Clouds Few 100 ft
Dew Point 21 °F
Humidity 93%
Rainfall 0.00 in
Snow Depth Not available.
8:14 AM 4:06 PM
Waxing Crescent, 27% visible
METAR ETHC 050220Z 05002KT 3500 MIFG BR FEW001 M05/M06 Q1029 YLO

10-Day Weather Forecast

×

Almanac

Astronomy

Dec. 05, 2016 Rise Set
Actual Time
Civil Twilight
Nautical Twilight
Astronomical Twilight
Moon
Length of Visible Light
Length of Day
Tomorrow will be .
, % of the Moon is Illuminated

Today's Extremes

Country Highs Country Lows

Community

WunderPhotos

Upload Photos

1,955,746 photos uploaded!

WunderBlog® & News

Nearby

Air Quality

  Air Quality AQ Index Pollutant
Not available.

Snow Depth

Station Depth Elevation

Earthquake Activity

City Distance Mag. Time & Date
Minimum magnitude displayed is 2.5.

Coastal Water Temperatures

Place Temperature

Stations

Nearby Weather Stations

Station Location Temp. Windchill Dew Point Humidity Wind Precip. Elev Updated Type